Time;durP1;ratioP1;P1;durP2;ratioP2;P2;SDS_P1;SDS_P2;PMS_P1;PMS_P2;Temp;Humidity;BMP_temperature;BMP_pressure;BME280_temperature;BME280_humidity;BME280_pressure;Samples;Min_cycle;Max_cycle;Signal;HPM_P1;HPM_P2
2022/10/09 00:01:38;;;;;;;14.02;8.63;;;8.40;99.90;;;;;;5030088;28;20153;-73
2022/10/09 00:04:05;;;;;;;15.88;8.25;;;8.30;99.90;;;;;;5030199;28;20041;-71
2022/10/09 00:06:34;;;;;;;14.48;8.38;;;8.30;99.90;;;;;;5019194;28;20046;-70
2022/10/09 00:09:03;;;;;;;11.55;7.60;;;8.30;99.90;;;;;;5013767;28;20111;-71
2022/10/09 00:11:32;;;;;;;13.40;7.85;;;8.20;99.90;;;;;;5013405;28;20041;-71
2022/10/09 00:14:00;;;;;;;14.70;7.13;;;8.20;99.90;;;;;;5021710;28;20041;-70
2022/10/09 00:16:27;;;;;;;15.57;8.02;;;8.10;99.90;;;;;;5024559;28;20037;-70
2022/10/09 00:18:55;;;;;;;13.23;6.95;;;8.10;99.90;;;;;;5028492;28;20527;-70
2022/10/09 00:21:25;;;;;;;13.90;7.18;;;8.00;99.90;;;;;;5026186;28;20037;-71
2022/10/09 00:23:55;;;;;;;12.52;7.20;;;8.00;99.90;;;;;;5031160;28;20060;-70
2022/10/09 00:26:23;;;;;;;12.77;7.07;;;8.00;99.90;;;;;;5021675;28;20060;-71
2022/10/09 00:28:51;;;;;;;11.30;7.30;;;7.90;99.90;;;;;;5030606;28;20049;-70
2022/10/09 00:31:18;;;;;;;11.95;7.18;;;7.90;99.90;;;;;;5029382;28;20412;-71
2022/10/09 00:33:46;;;;;;;12.32;6.68;;;7.90;99.90;;;;;;5027180;28;20104;-70
2022/10/09 00:36:16;;;;;;;15.20;7.55;;;7.90;99.90;;;;;;5009651;28;20057;-71
2022/10/09 00:38:44;;;;;;;14.38;6.75;;;7.80;99.90;;;;;;5023927;28;20492;-71
2022/10/09 00:41:37;;;;;;;13.90;6.97;;;7.80;99.90;;;;;;5012119;28;20567;-71
2022/10/09 00:44:42;;;;;;;12.48;6.82;;;7.90;99.90;;;;;;5022467;28;20081;-71
2022/10/09 00:47:17;;;;;;;12.43;6.53;;;7.90;99.90;;;;;;5017597;28;20046;-70
2022/10/09 00:49:45;;;;;;;16.15;7.30;;;7.90;99.90;;;;;;5010408;28;20060;-70
2022/10/09 00:52:13;;;;;;;11.93;7.45;;;7.80;99.90;;;;;;5029004;28;20591;-70
2022/10/09 00:54:41;;;;;;;13.93;7.10;;;7.80;99.90;;;;;;5022713;28;20052;-69
2022/10/09 00:57:10;;;;;;;11.23;6.43;;;7.80;99.90;;;;;;5046255;28;20049;-70
2022/10/09 00:59:39;;;;;;;24.58;7.20;;;7.80;99.90;;;;;;5018045;28;20492;-70
2022/10/09 01:02:06;;;;;;;18.58;7.57;;;7.80;99.90;;;;;;5049411;28;20145;-69
2022/10/09 01:04:34;;;;;;;11.98;6.75;;;7.70;99.90;;;;;;5016930;28;20049;-69
2022/10/09 01:07:22;;;;;;;14.57;8.00;;;7.70;99.90;;;;;;5023386;28;20045;-70
2022/10/09 01:10:02;;;;;;;11.48;6.40;;;7.60;99.90;;;;;;5020609;28;20459;-70
2022/10/09 01:12:32;;;;;;;11.02;6.28;;;7.50;99.90;;;;;;5029039;28;20128;-70
2022/10/09 01:15:23;;;;;;;11.65;7.13;;;7.40;99.90;;;;;;5016406;28;20411;-70
2022/10/09 01:17:57;;;;;;;15.30;7.40;;;7.40;99.90;;;;;;5027297;28;20546;-70
2022/10/09 01:20:41;;;;;;;10.52;5.97;;;7.30;99.90;;;;;;5028728;28;20155;-70
2022/10/09 01:23:40;;;;;;;13.43;7.03;;;7.30;99.90;;;;;;5019138;28;20045;-70
2022/10/09 01:26:21;;;;;;;12.35;6.45;;;7.20;99.90;;;;;;5054859;28;20049;-70
2022/10/09 01:28:54;;;;;;;11.70;7.18;;;7.20;99.90;;;;;;5029133;28;20057;-70
2022/10/09 01:31:26;;;;;;;12.02;6.78;;;7.20;99.90;;;;;;5021844;28;20045;-70
2022/10/09 01:33:54;;;;;;;11.65;6.60;;;7.20;99.90;;;;;;5027283;28;20456;-70
2022/10/09 01:36:22;;;;;;;12.32;6.53;;;7.20;99.90;;;;;;5009108;28;20469;-70
2022/10/09 01:38:50;;;;;;;12.73;6.90;;;7.10;99.90;;;;;;5013729;28;20107;-70
2022/10/09 01:41:18;;;;;;;11.35;6.75;;;7.10;99.90;;;;;;5020798;28;20499;-70
2022/10/09 01:43:46;;;;;;;17.02;7.75;;;7.00;99.90;;;;;;5020604;28;20080;-70
2022/10/09 01:46:28;;;;;;;17.30;7.68;;;7.00;99.90;;;;;;5017509;28;20063;-70
2022/10/09 01:49:17;;;;;;;15.00;7.55;;;7.00;99.90;;;;;;5011079;28;20115;-70
2022/10/09 01:52:06;;;;;;;14.65;7.28;;;7.00;99.90;;;;;;5021664;28;20452;-70
2022/10/09 01:54:46;;;;;;;15.00;8.15;;;6.90;99.90;;;;;;5016221;28;20412;-70
2022/10/09 01:57:21;;;;;;;14.35;7.07;;;6.90;99.90;;;;;;5029895;28;20042;-70
2022/10/09 01:59:51;;;;;;;13.45;7.18;;;6.90;99.90;;;;;;5020874;28;20496;-70
2022/10/09 02:02:19;;;;;;;14.25;8.02;;;6.90;99.90;;;;;;5028171;28;20475;-70
2022/10/09 02:04:48;;;;;;;13.50;7.40;;;6.90;99.90;;;;;;5029796;28;20491;-70
2022/10/09 02:07:17;;;;;;;16.30;7.78;;;6.80;99.90;;;;;;5028220;28;20099;-70
2022/10/09 02:09:45;;;;;;;13.10;6.68;;;6.80;99.90;;;;;;5029199;28;20060;-70
2022/10/09 02:12:16;;;;;;;16.13;7.63;;;6.80;99.90;;;;;;5024232;28;20053;-70
2022/10/09 02:14:43;;;;;;;13.27;7.20;;;6.80;99.90;;;;;;5028264;28;20049;-70
2022/10/09 02:17:18;;;;;;;15.77;7.18;;;6.80;99.90;;;;;;5025581;28;20046;-70
2022/10/09 02:20:02;;;;;;;14.48;7.30;;;6.70;99.90;;;;;;5028444;28;20359;-70
2022/10/09 02:22:32;;;;;;;14.02;8.05;;;6.70;99.90;;;;;;5022987;28;20037;-70
2022/10/09 02:25:02;;;;;;;12.05;7.35;;;6.70;99.90;;;;;;5028278;28;20059;-70
2022/10/09 02:27:30;;;;;;;11.50;7.20;;;6.70;99.90;;;;;;5027879;28;20046;-70
2022/10/09 02:29:59;;;;;;;13.32;8.13;;;6.70;99.90;;;;;;5027269;28;20408;-70
2022/10/09 02:32:27;;;;;;;10.43;6.55;;;6.60;99.90;;;;;;5028271;28;20056;-70
2022/10/09 02:34:55;;;;;;;15.02;7.30;;;6.60;99.90;;;;;;5016920;28;20646;-70
2022/10/09 02:37:22;;;;;;;13.23;7.40;;;6.60;99.90;;;;;;5022238;28;20041;-70
2022/10/09 02:39:49;;;;;;;13.55;6.97;;;6.60;99.90;;;;;;5041431;28;20057;-70
2022/10/09 02:42:17;;;;;;;14.95;7.45;;;6.50;99.90;;;;;;5013723;28;20037;-70
2022/10/09 02:44:44;;;;;;;18.27;7.53;;;6.60;99.90;;;;;;5006630;28;20461;-70
2022/10/09 02:47:14;;;;;;;12.77;7.40;;;6.50;99.90;;;;;;5046640;28;20148;-71
2022/10/09 02:49:41;;;;;;;21.35;7.30;;;6.50;99.90;;;;;;5015690;28;20128;-71
2022/10/09 02:52:09;;;;;;;11.65;7.18;;;6.50;99.90;;;;;;5010558;28;20091;-71
2022/10/09 02:54:36;;;;;;;14.65;7.50;;;6.40;99.90;;;;;;5031774;28;20037;-71
2022/10/09 02:57:03;;;;;;;13.35;7.93;;;6.40;99.90;;;;;;5031758;28;20045;-70
2022/10/09 02:59:31;;;;;;;14.40;6.90;;;6.40;99.90;;;;;;5031873;28;20065;-70
2022/10/09 03:01:58;;;;;;;11.52;7.32;;;6.40;99.90;;;;;;5033219;28;20046;-70
2022/10/09 03:04:25;;;;;;;14.38;7.70;;;6.30;99.90;;;;;;5029673;28;20124;-70
2022/10/09 03:06:53;;;;;;;13.68;7.53;;;6.30;99.90;;;;;;5015482;28;20428;-70
2022/10/09 03:09:20;;;;;;;12.75;7.05;;;6.30;99.90;;;;;;5021514;28;20053;-70
2022/10/09 03:11:47;;;;;;;13.57;6.97;;;6.30;99.90;;;;;;5029864;28;20052;-70
2022/10/09 03:14:14;;;;;;;13.15;6.90;;;6.30;99.90;;;;;;5027129;28;20484;-70
2022/10/09 03:16:42;;;;;;;13.07;7.70;;;6.30;99.90;;;;;;5030414;28;20411;-70
2022/10/09 03:19:09;;;;;;;13.48;7.72;;;6.30;99.90;;;;;;5031491;28;20063;-70
2022/10/09 03:21:36;;;;;;;14.30;7.20;;;6.30;99.90;;;;;;5027186;28;20049;-70
2022/10/09 03:24:04;;;;;;;14.02;6.95;;;6.20;99.90;;;;;;5022437;28;20119;-70
2022/10/09 03:26:31;;;;;;;12.55;6.75;;;6.20;99.90;;;;;;5029743;28;20056;-70
2022/10/09 03:28:58;;;;;;;13.02;6.57;;;6.20;99.90;;;;;;5030622;28;20500;-70
2022/10/09 03:31:26;;;;;;;15.98;7.43;;;6.20;99.90;;;;;;5026630;28;20473;-70
2022/10/09 03:34:14;;;;;;;10.93;6.85;;;6.20;99.90;;;;;;5024856;28;20092;-70
2022/10/09 03:36:41;;;;;;;12.98;6.78;;;6.20;99.90;;;;;;5016829;28;20061;-70
2022/10/09 03:39:09;;;;;;;10.15;7.03;;;6.10;99.90;;;;;;5030976;28;20025;-71
2022/10/09 03:41:36;;;;;;;12.90;6.93;;;6.10;99.90;;;;;;5029580;28;20041;-71
2022/10/09 03:44:03;;;;;;;12.80;6.93;;;6.10;99.90;;;;;;5011289;28;20042;-70
2022/10/09 03:46:31;;;;;;;12.57;6.25;;;6.20;99.90;;;;;;5025983;28;20051;-70
2022/10/09 03:48:58;;;;;;;11.18;7.03;;;6.10;99.90;;;;;;5011783;28;20090;-70
2022/10/09 03:51:26;;;;;;;10.93;6.65;;;6.10;99.90;;;;;;5031114;28;20476;-70
2022/10/09 03:53:53;;;;;;;10.60;6.13;;;6.10;99.90;;;;;;5016552;28;20476;-70
2022/10/09 03:56:20;;;;;;;9.48;5.97;;;6.00;99.90;;;;;;5013740;28;20049;-70
2022/10/09 03:58:48;;;;;;;11.40;6.32;;;6.00;99.90;;;;;;5024654;28;20041;-70
2022/10/09 04:01:15;;;;;;;11.13;6.35;;;6.00;99.90;;;;;;5030347;28;20511;-70
2022/10/09 04:03:42;;;;;;;11.32;6.32;;;6.00;99.90;;;;;;5029495;28;20049;-70
2022/10/09 04:06:10;;;;;;;10.70;6.20;;;5.90;99.90;;;;;;5030569;28;20128;-70
2022/10/09 04:08:37;;;;;;;13.68;6.20;;;5.90;99.90;;;;;;5030933;28;20060;-70
2022/10/09 04:11:05;;;;;;;10.43;6.50;;;5.80;99.90;;;;;;5030610;28;20669;-70
2022/10/09 04:13:32;;;;;;;9.90;5.95;;;5.80;99.90;;;;;;5030489;28;20045;-70
2022/10/09 04:15:59;;;;;;;14.85;6.57;;;5.80;99.90;;;;;;5016855;28;20432;-71
2022/10/09 04:18:27;;;;;;;13.60;6.90;;;5.80;99.90;;;;;;5030210;28;20128;-71
2022/10/09 04:20:56;;;;;;;14.50;7.15;;;5.70;99.90;;;;;;5028075;28;20038;-70
2022/10/09 04:23:26;;;;;;;11.10;6.72;;;5.70;99.90;;;;;;5021554;28;20145;-70
2022/10/09 04:25:55;;;;;;;10.40;6.53;;;5.60;99.90;;;;;;5025431;28;20059;-70
2022/10/09 04:28:23;;;;;;;12.10;6.43;;;5.60;99.90;;;;;;5023056;28;20053;-70
2022/10/09 04:30:50;;;;;;;14.40;6.72;;;5.70;99.90;;;;;;5030192;28;20465;-71
2022/10/09 04:33:17;;;;;;;15.63;7.07;;;5.60;99.90;;;;;;5016333;28;20416;-70
2022/10/09 04:35:48;;;;;;;12.95;6.43;;;5.60;99.90;;;;;;5013117;28;20037;-70
2022/10/09 04:38:15;;;;;;;11.05;6.38;;;5.60;99.90;;;;;;5003572;28;20054;-71
2022/10/09 04:40:43;;;;;;;11.63;6.30;;;5.60;99.90;;;;;;5029452;28;20053;-71
2022/10/09 04:43:10;;;;;;;15.25;7.10;;;5.60;99.90;;;;;;5029800;28;20499;-71
2022/10/09 04:45:40;;;;;;;12.50;7.63;;;5.60;99.90;;;;;;5025727;28;20049;-71
2022/10/09 04:48:08;;;;;;;9.68;6.20;;;5.50;99.90;;;;;;5029767;28;20045;-71
2022/10/09 04:50:38;;;;;;;13.05;6.75;;;5.50;99.90;;;;;;5027138;28;20059;-71
2022/10/09 04:53:05;;;;;;;11.05;6.60;;;5.50;99.90;;;;;;5019052;28;20137;-70
2022/10/09 04:55:36;;;;;;;18.55;7.05;;;5.60;99.90;;;;;;5030132;28;20084;-71
2022/10/09 04:58:04;;;;;;;10.82;6.72;;;5.50;99.90;;;;;;5026960;28;20041;-70
2022/10/09 05:00:31;;;;;;;10.95;6.80;;;5.50;99.90;;;;;;5020673;28;20089;-70
2022/10/09 05:02:58;;;;;;;10.23;5.88;;;5.50;99.90;;;;;;5028886;28;20044;-70
2022/10/09 05:05:26;;;;;;;15.90;6.82;;;5.50;99.90;;;;;;5029304;28;20045;-70
2022/10/09 05:07:53;;;;;;;13.23;6.45;;;5.50;99.90;;;;;;5029186;28;20499;-70
2022/10/09 05:10:20;;;;;;;11.82;6.55;;;5.50;99.90;;;;;;5010132;28;20392;-71
2022/10/09 05:12:47;;;;;;;12.85;6.70;;;5.50;99.90;;;;;;5025832;28;20502;-70
2022/10/09 05:15:15;;;;;;;11.05;6.28;;;5.40;99.90;;;;;;5012127;28;20129;-70
2022/10/09 05:17:42;;;;;;;11.63;6.50;;;5.40;99.90;;;;;;5029445;28;20041;-70
2022/10/09 05:20:10;;;;;;;10.60;6.20;;;5.40;99.90;;;;;;5019287;28;20034;-70
2022/10/09 05:22:37;;;;;;;10.20;6.28;;;5.40;99.90;;;;;;5014693;28;20172;-70
2022/10/09 05:25:06;;;;;;;10.73;6.13;;;5.40;99.90;;;;;;5026309;28;20537;-70
2022/10/09 05:27:33;;;;;;;10.07;6.50;;;5.40;99.90;;;;;;5021851;28;20527;-70
2022/10/09 05:30:00;;;;;;;10.98;6.72;;;5.40;99.90;;;;;;5019970;28;20049;-70
2022/10/09 05:32:28;;;;;;;11.48;6.82;;;5.40;99.90;;;;;;5030319;28;20042;-70
2022/10/09 05:34:55;;;;;;;11.25;6.78;;;5.40;99.90;;;;;;5024396;28;20041;-70
2022/10/09 05:37:22;;;;;;;13.18;6.13;;;5.40;99.90;;;;;;5027391;28;20050;-70
2022/10/09 05:39:50;;;;;;;8.95;5.80;;;5.40;99.90;;;;;;5023287;28;20061;-70
2022/10/09 05:42:17;;;;;;;9.93;6.25;;;5.40;99.90;;;;;;5028296;28;20045;-70
2022/10/09 05:44:44;;;;;;;13.13;6.28;;;5.40;99.90;;;;;;5028247;28;20060;-70
2022/10/09 05:47:16;;;;;;;9.52;5.88;;;5.40;99.90;;;;;;5028029;28;20045;-70
2022/10/09 05:49:44;;;;;;;;;;;5.50;99.90;;;;;;5009021;28;20144;-70
2022/10/09 05:52:11;;;;;;;9.95;5.80;;;5.50;99.90;;;;;;5023902;28;19939;-70
2022/10/09 05:54:38;;;;;;;13.65;6.72;;;5.50;99.90;;;;;;5013713;28;20828;-70
2022/10/09 05:57:06;;;;;;;11.82;5.53;;;5.50;99.90;;;;;;5023436;28;20410;-70
2022/10/09 05:59:33;;;;;;;12.38;6.22;;;5.60;99.90;;;;;;5028062;28;20080;-70
2022/10/09 06:02:00;;;;;;;9.50;6.35;;;5.60;99.90;;;;;;5028882;28;20097;-70
2022/10/09 06:04:28;;;;;;;10.38;6.25;;;5.60;99.90;;;;;;5019832;28;20079;-70
2022/10/09 06:06:55;;;;;;;10.93;6.40;;;5.60;99.90;;;;;;5005992;28;20397;-71
2022/10/09 06:09:24;;;;;;;10.38;5.82;;;5.70;99.90;;;;;;5024589;28;20054;-70
2022/10/09 06:11:53;;;;;;;10.85;6.35;;;5.70;99.90;;;;;;5010674;28;20076;-70
2022/10/09 06:14:21;;;;;;;13.32;6.25;;;5.80;99.90;;;;;;5012315;28;20046;-71
2022/10/09 06:16:49;;;;;;;10.98;6.40;;;5.80;99.90;;;;;;5022212;28;20038;-71
2022/10/09 06:19:18;;;;;;;11.30;6.63;;;5.90;99.90;;;;;;5027110;28;20194;-71
2022/10/09 06:21:46;;;;;;;8.88;5.82;;;5.90;99.90;;;;;;4997503;28;20160;-71
2022/10/09 06:24:22;;;;;;;13.60;6.35;;;6.00;99.90;;;;;;5009259;28;20580;-71
2022/10/09 06:26:55;;;;;;;9.23;5.43;;;6.10;99.90;;;;;;4996004;28;20358;-71
2022/10/09 06:29:22;;;;;;;10.00;6.07;;;6.10;99.90;;;;;;5025739;28;20535;-70
2022/10/09 06:31:49;;;;;;;14.13;6.07;;;6.20;99.90;;;;;;5027456;28;20057;-71
2022/10/09 06:34:17;;;;;;;11.88;6.53;;;6.20;99.90;;;;;;5020759;28;20512;-70
2022/10/09 06:36:44;;;;;;;10.60;7.32;;;6.20;99.90;;;;;;5008482;28;20483;-70
2022/10/09 06:39:11;;;;;;;10.65;7.35;;;6.30;99.90;;;;;;5021842;28;20050;-71
2022/10/09 06:41:39;;;;;;;12.50;7.13;;;6.30;99.90;;;;;;5018153;28;20381;-72
2022/10/09 06:44:22;;;;;;;13.15;7.43;;;6.30;99.90;;;;;;5021815;28;20045;-71
2022/10/09 06:46:50;;;;;;;13.52;7.55;;;6.50;99.90;;;;;;5024273;28;20124;-71
2022/10/09 06:49:17;;;;;;;15.27;8.50;;;6.50;99.90;;;;;;5017434;28;20056;-71
2022/10/09 06:51:45;;;;;;;13.95;7.45;;;6.60;99.90;;;;;;5028282;28;20157;-71
2022/10/09 06:54:16;;;;;;;13.93;7.78;;;6.70;99.90;;;;;;4999099;28;20153;-71
2022/10/09 06:56:44;;;;;;;13.23;7.47;;;6.70;99.90;;;;;;5020414;28;20493;-70
2022/10/09 06:59:12;;;;;;;11.40;7.10;;;6.90;99.90;;;;;;5025460;28;20120;-71
2022/10/09 07:01:39;;;;;;;10.60;7.28;;;6.90;99.90;;;;;;5028005;28;20038;-70
2022/10/09 07:04:11;;;;;;;11.93;7.80;;;7.00;99.90;;;;;;5017426;28;20046;-70
2022/10/09 07:06:43;;;;;;;15.15;7.32;;;7.10;99.90;;;;;;5027536;28;20046;-70
2022/10/09 07:09:13;;;;;;;11.95;6.78;;;7.20;99.90;;;;;;5027436;28;20037;-70
2022/10/09 07:11:43;;;;;;;12.10;6.80;;;7.20;99.90;;;;;;5022570;28;20049;-71
2022/10/09 07:14:12;;;;;;;10.52;7.20;;;7.20;99.90;;;;;;5010212;28;20534;-70
2022/10/09 07:16:42;;;;;;;9.73;6.88;;;7.30;99.90;;;;;;5010736;28;20106;-70
2022/10/09 07:19:11;;;;;;;12.60;7.72;;;7.40;99.90;;;;;;5036128;28;20068;-71
2022/10/09 07:21:40;;;;;;;13.02;7.05;;;7.60;99.90;;;;;;5027750;28;20041;-71
2022/10/09 07:24:09;;;;;;;10.10;6.28;;;7.60;99.90;;;;;;5020200;28;20033;-72
2022/10/09 07:26:39;;;;;;;13.85;7.13;;;7.80;99.90;;;;;;5025779;28;20476;-71
2022/10/09 07:29:09;;;;;;;11.75;6.80;;;7.90;99.90;;;;;;5032563;28;20069;-70
2022/10/09 07:31:36;;;;;;;12.30;7.60;;;8.00;99.90;;;;;;5020586;28;20057;-71
2022/10/09 07:34:05;;;;;;;10.63;6.85;;;8.10;99.90;;;;;;5025090;28;20074;-71
2022/10/09 07:36:33;;;;;;;13.63;7.45;;;8.20;99.90;;;;;;5028707;28;20046;-71
2022/10/09 07:39:00;;;;;;;12.02;7.00;;;8.40;99.90;;;;;;5028048;28;20049;-70
2022/10/09 07:41:28;;;;;;;11.10;6.75;;;8.40;99.90;;;;;;5011458;28;20065;-70
2022/10/09 07:43:56;;;;;;;11.45;6.38;;;8.60;99.90;;;;;;5027530;28;20053;-69
2022/10/09 07:46:25;;;;;;;10.68;6.47;;;8.70;99.90;;;;;;5030690;28;20053;-71
2022/10/09 07:48:59;;;;;;;10.70;6.28;;;8.90;99.90;;;;;;5015136;28;20049;-70
2022/10/09 07:51:28;;;;;;;10.20;6.05;;;9.00;99.90;;;;;;5010887;28;20053;-70
2022/10/09 07:53:56;;;;;;;8.73;5.63;;;9.20;99.90;;;;;;5027352;28;20452;-70
2022/10/09 07:56:28;;;;;;;9.30;5.63;;;9.30;99.90;;;;;;5014383;28;20045;-70
2022/10/09 07:58:57;;;;;;;8.52;5.38;;;9.50;99.90;;;;;;5029376;28;20061;-70
2022/10/09 08:01:26;;;;;;;11.93;6.05;;;9.60;99.90;;;;;;5031746;28;20379;-70
2022/10/09 08:03:55;;;;;;;9.90;5.10;;;9.90;99.90;;;;;;5010879;28;20054;-70
2022/10/09 08:06:23;;;;;;;8.07;4.40;;;10.00;99.90;;;;;;5028585;28;20530;-72
2022/10/09 08:08:52;;;;;;;11.45;5.45;;;10.20;99.90;;;;;;5016214;28;20511;-69
2022/10/09 08:11:21;;;;;;;11.45;4.63;;;10.40;99.90;;;;;;5009983;28;20057;-70
2022/10/09 08:13:49;;;;;;;8.80;4.10;;;10.50;99.90;;;;;;5013617;28;20133;-69
2022/10/09 08:16:18;;;;;;;6.03;3.63;;;10.60;99.90;;;;;;5011765;28;20491;-70
2022/10/09 08:18:46;;;;;;;8.13;4.15;;;10.80;99.90;;;;;;5016064;28;20500;-70
2022/10/09 08:21:15;;;;;;;7.40;3.92;;;10.90;99.90;;;;;;5013477;28;20096;-70
2022/10/09 08:23:43;;;;;;;9.13;3.35;;;11.10;99.90;;;;;;5012401;28;20594;-70
2022/10/09 08:26:20;;;;;;;6.18;3.85;;;11.20;99.90;;;;;;5026121;28;20045;-71
2022/10/09 08:28:53;;;;;;;9.23;4.22;;;11.40;99.90;;;;;;5047389;28;20204;-71
2022/10/09 08:31:21;;;;;;;9.43;4.20;;;11.50;99.90;;;;;;5010821;28;20053;-71
2022/10/09 08:33:53;;;;;;;7.25;3.75;;;11.60;99.90;;;;;;5015319;28;20080;-71
2022/10/09 08:36:21;;;;;;;8.27;3.85;;;11.70;99.90;;;;;;5017808;28;20385;-71
2022/10/09 08:38:49;;;;;;;9.10;3.97;;;11.80;99.90;;;;;;5001632;28;20041;-71
2022/10/09 08:41:20;;;;;;;6.68;3.38;;;12.00;99.90;;;;;;5031292;28;20057;-72
2022/10/09 08:43:51;;;;;;;5.85;3.35;;;12.10;99.90;;;;;;5029389;28;20060;-71
2022/10/09 08:46:24;;;;;;;9.50;3.95;;;12.20;99.90;;;;;;5030126;28;20045;-71
2022/10/09 08:48:55;;;;;;;7.57;3.88;;;12.40;99.90;;;;;;5030805;28;20201;-70
2022/10/09 08:51:29;;;;;;;8.38;3.65;;;12.50;99.90;;;;;;5031121;28;20132;-71
2022/10/09 08:54:24;;;;;;;7.10;3.67;;;12.80;99.90;;;;;;5030685;28;20415;-71
2022/10/09 08:56:57;;;;;;;8.23;4.07;;;12.90;99.90;;;;;;5035942;28;20057;-70
2022/10/09 08:59:24;;;;;;;6.80;3.20;;;13.00;99.90;;;;;;5013548;28;20065;-70
2022/10/09 09:02:36;;;;;;;8.60;3.70;;;13.10;99.90;;;;;;5011001;28;20484;-70
2022/10/09 09:05:28;;;;;;;5.32;3.03;;;13.20;99.90;;;;;;5009385;28;20483;-70
2022/10/09 09:08:10;;;;;;;6.75;3.92;;;13.80;99.90;;;;;;5010264;28;20054;-69
2022/10/09 09:10:50;;;;;;;8.77;4.00;;;13.70;99.90;;;;;;5024098;28;20400;-69
2022/10/09 09:13:33;;;;;;;8.63;3.38;;;13.80;99.90;;;;;;5013792;28;20048;-70
2022/10/09 09:16:10;;;;;;;6.07;3.38;;;13.90;99.90;;;;;;5015900;28;20029;-69
2022/10/09 09:19:30;;;;;;;10.00;4.22;;;14.00;99.90;;;;;;5018376;28;20508;-69
2022/10/09 09:21:57;;;;;;;9.43;3.85;;;14.10;99.90;;;;;;5004925;28;20370;-68
2022/10/09 09:24:55;;;;;;;6.25;3.47;;;14.20;99.90;;;;;;5012452;28;20072;-69
2022/10/09 09:27:32;;;;;;;8.15;3.63;;;14.20;99.90;;;;;;5008146;28;20125;-71
2022/10/09 09:30:11;;;;;;;6.28;3.80;;;14.30;99.90;;;;;;5013355;28;20046;-69
2022/10/09 09:32:44;;;;;;;10.30;3.97;;;14.40;99.90;;;;;;5013199;28;20135;-69
2022/10/09 09:35:45;;;;;;;6.90;3.63;;;14.60;99.90;;;;;;5015737;28;20045;-69
2022/10/09 09:38:13;;;;;;;5.20;3.37;;;14.70;99.90;;;;;;5033691;28;20050;-69
2022/10/09 09:40:42;;;;;;;6.68;3.53;;;14.80;99.90;;;;;;5009543;28;20037;-68
2022/10/09 09:43:23;;;;;;;7.63;3.35;;;15.00;99.90;;;;;;5010795;28;20144;-70
2022/10/09 09:45:56;;;;;;;7.93;3.70;;;15.10;99.90;;;;;;5008601;28;20045;-68
2022/10/09 09:48:39;;;;;;;6.88;3.30;;;15.30;99.90;;;;;;5027832;28;20072;-71
2022/10/09 09:51:16;;;;;;;7.88;3.35;;;15.40;99.90;;;;;;5027353;28;20052;-70
2022/10/09 09:54:04;;;;;;;9.35;5.82;;;15.50;99.90;;;;;;5008865;28;20503;-72
2022/10/09 09:56:39;;;;;;;9.20;4.40;;;15.70;99.90;;;;;;5026250;28;20445;-71
2022/10/09 09:59:41;;;;;;;5.53;3.60;;;15.80;99.90;;;;;;5016422;28;20034;-70
2022/10/09 10:02:18;;;;;;;4.93;3.05;;;16.10;99.90;;;;;;5016900;28;20041;-71
2022/10/09 10:04:59;;;;;;;5.50;3.10;;;16.20;99.90;;;;;;5010284;28;20045;-70
2022/10/09 10:07:33;;;;;;;8.98;3.40;;;16.20;99.90;;;;;;5024470;28;20037;-70
2022/10/09 10:10:16;;;;;;;6.97;3.45;;;16.40;99.90;;;;;;5023240;28;20041;-70
2022/10/09 10:12:50;;;;;;;9.73;4.20;;;16.30;99.90;;;;;;5025006;28;20045;-69
2022/10/09 10:15:32;;;;;;;8.93;5.43;;;16.50;99.90;;;;;;5003941;28;20156;-68
2022/10/09 10:18:12;;;;;;;5.07;3.40;;;16.60;99.90;;;;;;5024127;28;20041;-69
2022/10/09 10:20:50;;;;;;;6.35;3.90;;;16.80;99.90;;;;;;5028981;28;20041;-69
2022/10/09 10:23:23;;;;;;;6.53;3.75;;;17.00;99.90;;;;;;5029467;28;20436;-69
2022/10/09 10:25:52;;;;;;;;;;;17.10;99.90;;;;;;5010693;28;20517;-69
2022/10/09 10:28:25;;;;;;;5.95;3.47;;;17.20;99.90;;;;;;5049868;28;19932;-69
2022/10/09 10:30:56;;;;;;;5.72;3.50;;;17.40;99.90;;;;;;5023444;28;20041;-69
2022/10/09 10:33:28;;;;;;;7.10;3.67;;;17.70;99.90;;;;;;5015276;28;20042;-69
2022/10/09 10:35:57;;;;;;;7.85;3.80;;;17.90;99.90;;;;;;5023051;28;20541;-69
2022/10/09 10:38:43;;;;;;;5.47;3.60;;;18.00;99.90;;;;;;5024892;28;20045;-70
2022/10/09 10:41:38;;;;;;;5.15;3.35;;;18.20;99.90;;;;;;5026153;28;20084;-69
2022/10/09 10:44:18;;;;;;;3.80;2.95;;;18.50;99.90;;;;;;5025827;28;20038;-69
2022/10/09 10:46:58;;;;;;;4.63;3.50;;;18.80;99.90;;;;;;5028297;28;20045;-69
2022/10/09 10:49:26;;;;;;;5.68;3.97;;;19.00;99.90;;;;;;5023864;28;20042;-69
2022/10/09 10:52:30;;;;;;;6.22;3.63;;;19.20;99.90;;;;;;5021435;28;20351;-69
2022/10/09 10:55:25;;;;;;;9.52;5.13;;;19.50;99.90;;;;;;5026964;28;20387;-68
2022/10/09 10:58:38;;;;;;;6.05;4.20;;;19.70;99.90;;;;;;5023358;28;20041;-69
2022/10/09 11:01:24;;;;;;;4.57;3.30;;;19.90;99.90;;;;;;5011217;28;20411;-69
2022/10/09 11:04:06;;;;;;;10.20;4.00;;;20.10;99.90;;;;;;5013970;28;20039;-68
2022/10/09 11:07:28;;;;;;;7.10;3.88;;;20.30;99.90;;;;;;5020206;28;20133;-71
2022/10/09 11:10:10;;;;;;;7.05;4.47;;;20.60;99.90;;;;;;5011095;28;20443;-70
2022/10/09 11:12:46;;;;;;;4.60;3.95;;;20.60;99.90;;;;;;5019500;28;20133;-70
2022/10/09 11:15:22;;;;;;;5.05;3.63;;;20.60;99.90;;;;;;5009920;28;20050;-70
2022/10/09 11:18:06;;;;;;;6.60;3.90;;;20.70;99.90;;;;;;5010691;28;20050;-69
2022/10/09 11:20:42;;;;;;;6.25;3.90;;;20.90;99.90;;;;;;5026375;28;20401;-71
2022/10/09 11:23:15;;;;;;;5.93;3.85;;;20.90;99.90;;;;;;5018369;28;20545;-71
2022/10/09 11:26:04;;;;;;;5.10;3.53;;;20.90;99.90;;;;;;5003502;28;20129;-69
2022/10/09 11:28:54;;;;;;;;;;;20.90;99.90;;;;;;5005906;28;20175;-70
2022/10/09 11:31:35;;;;;;;5.32;3.78;;;20.90;99.90;;;;;;4979648;28;19960;-70
2022/10/09 11:34:16;;;;;;;5.53;3.80;;;20.80;99.90;;;;;;5007934;28;20057;-69
2022/10/09 11:36:45;;;;;;;5.65;3.80;;;20.80;99.90;;;;;;5002775;28;20501;-72
2022/10/09 11:39:19;;;;;;;4.93;3.80;;;21.00;99.90;;;;;;4995584;28;20053;-69
2022/10/09 11:41:49;;;;;;;6.75;4.10;;;20.80;99.90;;;;;;5011919;28;20050;-69
2022/10/09 11:44:25;;;;;;;5.07;3.88;;;21.20;99.90;;;;;;5027322;28;20080;-69
2022/10/09 11:47:04;;;;;;;5.47;3.80;;;21.40;99.60;;;;;;5015335;28;20618;-69
2022/10/09 11:49:47;;;;;;;4.85;3.60;;;21.50;99.40;;;;;;5031006;28;20108;-69
2022/10/09 11:52:23;;;;;;;4.93;3.90;;;21.40;98.90;;;;;;5011578;28;20057;-69
2022/10/09 11:54:50;;;;;;;4.68;3.75;;;21.50;98.00;;;;;;5014166;28;20049;-69
2022/10/09 11:57:27;;;;;;;3.60;3.15;;;22.00;97.80;;;;;;5029903;28;20049;-70
2022/10/09 12:00:07;;;;;;;3.90;3.50;;;22.20;97.30;;;;;;5029748;28;20120;-69
2022/10/09 12:02:36;;;;;;;4.57;4.07;;;22.90;97.10;;;;;;5030906;28;20065;-69
2022/10/09 12:05:36;;;;;;;5.38;3.67;;;23.10;96.30;;;;;;5012743;28;20045;-69
2022/10/09 12:08:25;;;;;;;4.68;3.85;;;23.30;94.70;;;;;;5024960;28;20033;-70
2022/10/09 12:10:59;;;;;;;5.82;3.70;;;23.40;94.00;;;;;;5029218;28;20038;-69
2022/10/09 12:13:49;;;;;;;4.72;3.60;;;23.60;92.70;;;;;;5033914;28;20046;-69
2022/10/09 12:16:45;;;;;;;4.57;3.78;;;23.90;92.60;;;;;;5034820;28;20165;-70
2022/10/09 12:19:16;;;;;;;5.13;3.90;;;24.20;91.60;;;;;;5036825;28;20466;-69
2022/10/09 12:21:49;;;;;;;6.35;4.03;;;24.40;90.80;;;;;;5018646;28;20045;-69
2022/10/09 12:24:22;;;;;;;4.80;3.60;;;24.80;90.10;;;;;;5004763;28;20136;-69
2022/10/09 12:26:52;;;;;;;6.70;4.30;;;25.30;89.00;;;;;;5024070;28;20125;-69
2022/10/09 12:29:30;;;;;;;4.00;3.60;;;26.60;87.00;;;;;;5027766;28;20137;-69
2022/10/09 12:32:03;;;;;;;6.03;4.30;;;27.80;83.20;;;;;;5023284;28;20049;-70
2022/10/09 12:34:36;;;;;;;4.10;3.67;;;29.30;79.70;;;;;;5021059;28;20068;-69
2022/10/09 12:37:18;;;;;;;4.30;3.53;;;30.00;74.10;;;;;;5019161;28;20037;-69
2022/10/09 12:39:48;;;;;;;4.25;3.85;;;31.70;68.70;;;;;;5030461;28;20373;-72
2022/10/09 12:42:21;;;;;;;4.78;3.90;;;32.80;65.00;;;;;;5010197;28;20456;-70
2022/10/09 12:44:52;;;;;;;7.28;3.70;;;33.20;62.30;;;;;;5026889;28;20139;-70
2022/10/09 12:47:25;;;;;;;6.60;4.00;;;34.00;59.60;;;;;;5030250;28;20441;-70
2022/10/09 12:50:26;;;;;;;5.00;3.90;;;34.80;58.30;;;;;;5029406;28;20080;-70
2022/10/09 12:52:59;;;;;;;4.30;3.45;;;35.60;55.00;;;;;;5037176;28;20072;-70
2022/10/09 12:55:29;;;;;;;5.10;3.17;;;35.40;54.20;;;;;;5022874;28;20050;-71
2022/10/09 12:58:07;;;;;;;4.23;3.60;;;36.00;53.40;;;;;;5022135;28;20149;-70
2022/10/09 13:00:35;;;;;;;5.22;3.67;;;36.00;52.10;;;;;;5030662;28;20033;-70
2022/10/09 13:03:02;;;;;;;4.20;3.80;;;36.00;51.30;;;;;;5027331;28;20045;-71
2022/10/09 13:05:41;;;;;;;3.60;3.22;;;36.70;50.50;;;;;;5023061;28;20103;-71
2022/10/09 13:08:41;;;;;;;4.05;3.50;;;36.10;49.80;;;;;;5029003;28;20308;-72
2022/10/09 13:11:19;;;;;;;4.22;3.47;;;36.40;49.40;;;;;;5039025;28;20049;-70
2022/10/09 13:13:51;;;;;;;4.90;3.45;;;36.20;48.80;;;;;;5030516;28;20041;-70
2022/10/09 13:16:18;;;;;;;3.90;3.60;;;36.40;48.40;;;;;;5023155;28;20483;-70
2022/10/09 13:19:03;;;;;;;4.13;3.60;;;36.80;48.00;;;;;;5024881;28;20050;-71